sensor_id;sensor_type;location;lat;lon;timestamp;P1;durP1;ratioP1;P2;durP2;ratioP2
66856;SDS011;53766;50.280;19.160;2024-03-02T00:01:39;30.60;;;19.88;;
66856;SDS011;53766;50.280;19.160;2024-03-02T00:04:06;29.02;;;19.65;;
66856;SDS011;53766;50.280;19.160;2024-03-02T00:06:35;29.42;;;20.67;;
66856;SDS011;53766;50.280;19.160;2024-03-02T00:09:03;29.73;;;20.55;;
66856;SDS011;53766;50.280;19.160;2024-03-02T00:11:34;29.02;;;19.92;;
66856;SDS011;53766;50.280;19.160;2024-03-02T00:14:03;32.92;;;20.77;;
66856;SDS011;53766;50.280;19.160;2024-03-02T00:16:31;30.10;;;19.70;;
66856;SDS011;53766;50.280;19.160;2024-03-02T00:19:02;30.02;;;19.05;;
66856;SDS011;53766;50.280;19.160;2024-03-02T00:21:31;33.85;;;21.63;;
66856;SDS011;53766;50.280;19.160;2024-03-02T00:23:59;29.27;;;20.40;;
66856;SDS011;53766;50.280;19.160;2024-03-02T00:26:27;31.75;;;19.67;;
66856;SDS011;53766;50.280;19.160;2024-03-02T00:28:56;32.72;;;21.73;;
66856;SDS011;53766;50.280;19.160;2024-03-02T00:31:24;30.67;;;20.05;;
66856;SDS011;53766;50.280;19.160;2024-03-02T00:33:52;32.85;;;21.27;;
66856;SDS011;53766;50.280;19.160;2024-03-02T00:36:24;29.85;;;20.10;;
66856;SDS011;53766;50.280;19.160;2024-03-02T00:38:53;30.92;;;20.10;;
66856;SDS011;53766;50.280;19.160;2024-03-02T00:41:23;30.63;;;20.33;;
66856;SDS011;53766;50.280;19.160;2024-03-02T00:43:58;32.20;;;21.10;;
66856;SDS011;53766;50.280;19.160;2024-03-02T00:46:34;30.73;;;20.70;;
66856;SDS011;53766;50.280;19.160;2024-03-02T00:49:03;30.30;;;20.25;;
66856;SDS011;53766;50.280;19.160;2024-03-02T00:51:39;31.67;;;20.75;;
66856;SDS011;53766;50.280;19.160;2024-03-02T00:54:07;30.77;;;19.58;;
66856;SDS011;53766;50.280;19.160;2024-03-02T00:56:37;29.88;;;20.08;;
66856;SDS011;53766;50.280;19.160;2024-03-02T00:59:05;32.03;;;20.67;;
66856;SDS011;53766;50.280;19.160;2024-03-02T01:01:32;34.97;;;20.98;;
66856;SDS011;53766;50.280;19.160;2024-03-02T01:04:00;29.33;;;19.75;;
66856;SDS011;53766;50.280;19.160;2024-03-02T01:06:28;29.77;;;19.63;;
66856;SDS011;53766;50.280;19.160;2024-03-02T01:08:56;30.45;;;20.15;;
66856;SDS011;53766;50.280;19.160;2024-03-02T01:11:23;32.75;;;20.55;;
66856;SDS011;53766;50.280;19.160;2024-03-02T01:13:51;28.80;;;19.15;;
66856;SDS011;53766;50.280;19.160;2024-03-02T01:16:20;32.65;;;20.50;;
66856;SDS011;53766;50.280;19.160;2024-03-02T01:18:48;32.08;;;20.88;;
66856;SDS011;53766;50.280;19.160;2024-03-02T01:21:16;30.23;;;19.63;;
66856;SDS011;53766;50.280;19.160;2024-03-02T01:23:45;27.33;;;19.58;;
66856;SDS011;53766;50.280;19.160;2024-03-02T01:26:13;29.42;;;19.70;;
66856;SDS011;53766;50.280;19.160;2024-03-02T01:28:40;29.52;;;20.75;;
66856;SDS011;53766;50.280;19.160;2024-03-02T01:31:08;28.60;;;20.15;;
66856;SDS011;53766;50.280;19.160;2024-03-02T01:33:36;29.92;;;20.00;;
66856;SDS011;53766;50.280;19.160;2024-03-02T01:36:03;30.27;;;19.45;;
66856;SDS011;53766;50.280;19.160;2024-03-02T01:38:31;29.20;;;19.58;;
66856;SDS011;53766;50.280;19.160;2024-03-02T01:40:59;28.90;;;19.70;;
66856;SDS011;53766;50.280;19.160;2024-03-02T01:43:27;29.70;;;19.38;;
66856;SDS011;53766;50.280;19.160;2024-03-02T01:45:55;30.23;;;19.77;;
66856;SDS011;53766;50.280;19.160;2024-03-02T01:48:23;31.45;;;20.15;;
66856;SDS011;53766;50.280;19.160;2024-03-02T01:50:51;29.75;;;20.35;;
66856;SDS011;53766;50.280;19.160;2024-03-02T01:53:19;29.60;;;19.88;;
66856;SDS011;53766;50.280;19.160;2024-03-02T01:55:47;28.85;;;18.58;;
66856;SDS011;53766;50.280;19.160;2024-03-02T01:58:14;32.80;;;19.52;;
66856;SDS011;53766;50.280;19.160;2024-03-02T02:00:42;29.88;;;19.45;;
66856;SDS011;53766;50.280;19.160;2024-03-02T02:03:09;29.60;;;19.65;;
66856;SDS011;53766;50.280;19.160;2024-03-02T02:05:37;28.75;;;18.52;;
66856;SDS011;53766;50.280;19.160;2024-03-02T02:08:05;32.33;;;20.25;;
66856;SDS011;53766;50.280;19.160;2024-03-02T02:10:33;28.52;;;18.98;;
66856;SDS011;53766;50.280;19.160;2024-03-02T02:13:00;29.23;;;19.30;;
66856;SDS011;53766;50.280;19.160;2024-03-02T02:15:29;27.50;;;19.05;;
66856;SDS011;53766;50.280;19.160;2024-03-02T02:17:57;29.20;;;18.63;;
66856;SDS011;53766;50.280;19.160;2024-03-02T02:20:26;28.92;;;18.83;;
66856;SDS011;53766;50.280;19.160;2024-03-02T02:25:29;28.50;;;19.03;;
66856;SDS011;53766;50.280;19.160;2024-03-02T02:27:57;28.10;;;18.92;;
66856;SDS011;53766;50.280;19.160;2024-03-02T02:30:29;29.58;;;19.08;;
66856;SDS011;53766;50.280;19.160;2024-03-02T02:32:58;28.63;;;19.60;;
66856;SDS011;53766;50.280;19.160;2024-03-02T02:35:26;29.10;;;18.63;;
66856;SDS011;53766;50.280;19.160;2024-03-02T02:37:55;28.98;;;18.90;;
66856;SDS011;53766;50.280;19.160;2024-03-02T02:40:24;27.95;;;18.77;;
66856;SDS011;53766;50.280;19.160;2024-03-02T02:42:52;30.52;;;19.90;;
66856;SDS011;53766;50.280;19.160;2024-03-02T02:45:20;28.42;;;18.63;;
66856;SDS011;53766;50.280;19.160;2024-03-02T02:47:48;29.08;;;18.23;;
66856;SDS011;53766;50.280;19.160;2024-03-02T02:50:17;26.98;;;18.63;;
66856;SDS011;53766;50.280;19.160;2024-03-02T02:52:44;28.67;;;18.58;;
66856;SDS011;53766;50.280;19.160;2024-03-02T02:55:12;27.95;;;18.92;;
66856;SDS011;53766;50.280;19.160;2024-03-02T02:57:41;28.58;;;18.80;;
66856;SDS011;53766;50.280;19.160;2024-03-02T03:00:11;28.65;;;18.45;;
66856;SDS011;53766;50.280;19.160;2024-03-02T03:05:16;27.48;;;17.88;;
66856;SDS011;53766;50.280;19.160;2024-03-02T03:07:45;27.98;;;18.60;;
66856;SDS011;53766;50.280;19.160;2024-03-02T03:10:13;27.20;;;19.40;;
66856;SDS011;53766;50.280;19.160;2024-03-02T03:12:42;26.77;;;18.25;;
66856;SDS011;53766;50.280;19.160;2024-03-02T03:15:11;28.20;;;18.52;;
66856;SDS011;53766;50.280;19.160;2024-03-02T03:17:40;26.67;;;18.80;;
66856;SDS011;53766;50.280;19.160;2024-03-02T03:20:08;26.75;;;17.90;;
66856;SDS011;53766;50.280;19.160;2024-03-02T03:22:42;26.95;;;18.25;;
66856;SDS011;53766;50.280;19.160;2024-03-02T03:25:10;28.88;;;18.85;;
66856;SDS011;53766;50.280;19.160;2024-03-02T03:27:37;25.00;;;17.63;;
66856;SDS011;53766;50.280;19.160;2024-03-02T03:30:05;24.85;;;17.80;;
66856;SDS011;53766;50.280;19.160;2024-03-02T03:32:34;26.00;;;17.52;;
66856;SDS011;53766;50.280;19.160;2024-03-02T03:35:02;27.60;;;18.50;;
66856;SDS011;53766;50.280;19.160;2024-03-02T03:37:31;28.48;;;18.23;;
66856;SDS011;53766;50.280;19.160;2024-03-02T03:40:02;25.58;;;17.73;;
66856;SDS011;53766;50.280;19.160;2024-03-02T03:42:30;27.00;;;18.33;;
66856;SDS011;53766;50.280;19.160;2024-03-02T03:44:58;27.35;;;17.98;;
66856;SDS011;53766;50.280;19.160;2024-03-02T03:47:25;26.10;;;18.13;;
66856;SDS011;53766;50.280;19.160;2024-03-02T03:49:53;27.63;;;17.13;;
66856;SDS011;53766;50.280;19.160;2024-03-02T03:52:21;26.73;;;17.75;;
66856;SDS011;53766;50.280;19.160;2024-03-02T03:54:48;26.17;;;18.42;;
66856;SDS011;53766;50.280;19.160;2024-03-02T03:57:16;25.35;;;17.17;;
66856;SDS011;53766;50.280;19.160;2024-03-02T03:59:44;25.65;;;17.17;;
66856;SDS011;53766;50.280;19.160;2024-03-02T04:02:13;25.13;;;16.80;;
66856;SDS011;53766;50.280;19.160;2024-03-02T04:04:41;26.38;;;17.38;;
66856;SDS011;53766;50.280;19.160;2024-03-02T04:07:08;24.35;;;17.30;;
66856;SDS011;53766;50.280;19.160;2024-03-02T04:09:36;27.30;;;18.10;;
66856;SDS011;53766;50.280;19.160;2024-03-02T04:12:03;25.15;;;16.95;;
66856;SDS011;53766;50.280;19.160;2024-03-02T04:14:34;26.73;;;18.05;;
66856;SDS011;53766;50.280;19.160;2024-03-02T04:17:02;29.17;;;17.75;;
66856;SDS011;53766;50.280;19.160;2024-03-02T04:19:30;24.77;;;16.83;;
66856;SDS011;53766;50.280;19.160;2024-03-02T04:22:17;26.35;;;16.73;;
66856;SDS011;53766;50.280;19.160;2024-03-02T04:24:52;25.55;;;16.48;;
66856;SDS011;53766;50.280;19.160;2024-03-02T04:27:19;26.20;;;17.13;;
66856;SDS011;53766;50.280;19.160;2024-03-02T04:29:47;25.02;;;17.00;;
66856;SDS011;53766;50.280;19.160;2024-03-02T04:32:15;26.65;;;17.55;;
66856;SDS011;53766;50.280;19.160;2024-03-02T04:34:43;26.50;;;17.55;;
66856;SDS011;53766;50.280;19.160;2024-03-02T04:37:10;24.95;;;17.52;;
66856;SDS011;53766;50.280;19.160;2024-03-02T04:39:39;27.45;;;17.63;;
66856;SDS011;53766;50.280;19.160;2024-03-02T04:42:07;27.88;;;17.60;;
66856;SDS011;53766;50.280;19.160;2024-03-02T04:44:34;26.35;;;17.60;;
66856;SDS011;53766;50.280;19.160;2024-03-02T04:47:02;25.77;;;17.20;;
66856;SDS011;53766;50.280;19.160;2024-03-02T04:49:30;25.50;;;16.70;;
66856;SDS011;53766;50.280;19.160;2024-03-02T04:51:58;23.58;;;16.25;;
66856;SDS011;53766;50.280;19.160;2024-03-02T04:54:25;25.00;;;17.27;;
66856;SDS011;53766;50.280;19.160;2024-03-02T04:56:54;23.88;;;15.80;;
66856;SDS011;53766;50.280;19.160;2024-03-02T04:59:22;24.15;;;16.58;;
66856;SDS011;53766;50.280;19.160;2024-03-02T05:01:49;25.13;;;16.85;;
66856;SDS011;53766;50.280;19.160;2024-03-02T05:04:17;27.30;;;16.90;;
66856;SDS011;53766;50.280;19.160;2024-03-02T05:06:45;29.38;;;16.73;;
66856;SDS011;53766;50.280;19.160;2024-03-02T05:09:19;23.52;;;16.00;;
66856;SDS011;53766;50.280;19.160;2024-03-02T05:11:46;25.02;;;17.08;;
66856;SDS011;53766;50.280;19.160;2024-03-02T05:14:37;24.52;;;16.83;;
66856;SDS011;53766;50.280;19.160;2024-03-02T05:17:05;25.52;;;15.93;;
66856;SDS011;53766;50.280;19.160;2024-03-02T05:19:33;25.75;;;16.23;;
66856;SDS011;53766;50.280;19.160;2024-03-02T05:22:01;25.42;;;16.88;;
66856;SDS011;53766;50.280;19.160;2024-03-02T05:24:28;24.23;;;16.67;;
66856;SDS011;53766;50.280;19.160;2024-03-02T05:26:56;24.33;;;16.48;;
66856;SDS011;53766;50.280;19.160;2024-03-02T05:29:23;26.25;;;16.88;;
66856;SDS011;53766;50.280;19.160;2024-03-02T05:31:51;26.13;;;16.48;;
66856;SDS011;53766;50.280;19.160;2024-03-02T05:34:19;25.55;;;15.85;;
66856;SDS011;53766;50.280;19.160;2024-03-02T05:36:46;24.75;;;15.98;;
66856;SDS011;53766;50.280;19.160;2024-03-02T05:39:14;24.02;;;15.98;;
66856;SDS011;53766;50.280;19.160;2024-03-02T05:41:42;23.42;;;16.38;;
66856;SDS011;53766;50.280;19.160;2024-03-02T05:44:10;25.10;;;16.05;;
66856;SDS011;53766;50.280;19.160;2024-03-02T05:46:37;26.65;;;16.35;;
66856;SDS011;53766;50.280;19.160;2024-03-02T05:49:07;26.55;;;16.58;;
66856;SDS011;53766;50.280;19.160;2024-03-02T05:51:35;24.58;;;16.10;;
66856;SDS011;53766;50.280;19.160;2024-03-02T05:54:03;27.10;;;16.30;;
66856;SDS011;53766;50.280;19.160;2024-03-02T05:56:30;25.25;;;15.10;;
66856;SDS011;53766;50.280;19.160;2024-03-02T05:58:58;26.95;;;15.90;;
66856;SDS011;53766;50.280;19.160;2024-03-02T06:01:45;26.13;;;16.40;;
66856;SDS011;53766;50.280;19.160;2024-03-02T06:04:18;26.08;;;15.23;;
66856;SDS011;53766;50.280;19.160;2024-03-02T06:06:45;23.35;;;15.30;;
66856;SDS011;53766;50.280;19.160;2024-03-02T06:09:13;27.48;;;16.23;;
66856;SDS011;53766;50.280;19.160;2024-03-02T06:11:41;26.52;;;16.02;;
66856;SDS011;53766;50.280;19.160;2024-03-02T06:14:09;26.60;;;16.00;;
66856;SDS011;53766;50.280;19.160;2024-03-02T06:16:36;27.77;;;15.45;;
66856;SDS011;53766;50.280;19.160;2024-03-02T06:19:04;25.08;;;15.52;;
66856;SDS011;53766;50.280;19.160;2024-03-02T06:21:32;25.13;;;16.02;;
66856;SDS011;53766;50.280;19.160;2024-03-02T06:24:00;25.73;;;15.45;;
66856;SDS011;53766;50.280;19.160;2024-03-02T06:26:28;22.65;;;15.63;;
66856;SDS011;53766;50.280;19.160;2024-03-02T06:28:57;26.15;;;15.55;;
66856;SDS011;53766;50.280;19.160;2024-03-02T06:31:24;26.90;;;16.02;;
66856;SDS011;53766;50.280;19.160;2024-03-02T06:33:52;22.30;;;15.52;;
66856;SDS011;53766;50.280;19.160;2024-03-02T06:36:20;23.52;;;15.20;;
66856;SDS011;53766;50.280;19.160;2024-03-02T06:38:48;23.60;;;15.25;;
66856;SDS011;53766;50.280;19.160;2024-03-02T06:41:16;24.67;;;15.43;;
66856;SDS011;53766;50.280;19.160;2024-03-02T06:43:43;23.63;;;15.70;;
66856;SDS011;53766;50.280;19.160;2024-03-02T06:46:11;24.98;;;15.77;;
66856;SDS011;53766;50.280;19.160;2024-03-02T06:48:42;24.50;;;15.32;;
66856;SDS011;53766;50.280;19.160;2024-03-02T06:51:09;22.25;;;15.82;;
66856;SDS011;53766;50.280;19.160;2024-03-02T06:53:37;24.42;;;16.25;;
66856;SDS011;53766;50.280;19.160;2024-03-02T06:56:04;21.85;;;15.60;;
66856;SDS011;53766;50.280;19.160;2024-03-02T06:58:33;22.42;;;14.80;;
66856;SDS011;53766;50.280;19.160;2024-03-02T07:01:01;25.40;;;15.85;;
66856;SDS011;53766;50.280;19.160;2024-03-02T07:03:29;23.98;;;15.57;;
66856;SDS011;53766;50.280;19.160;2024-03-02T07:05:57;23.70;;;15.88;;
66856;SDS011;53766;50.280;19.160;2024-03-02T07:08:24;25.52;;;16.15;;
66856;SDS011;53766;50.280;19.160;2024-03-02T07:10:52;26.40;;;17.17;;
66856;SDS011;53766;50.280;19.160;2024-03-02T07:13:20;25.45;;;16.75;;
66856;SDS011;53766;50.280;19.160;2024-03-02T07:15:47;25.17;;;15.65;;
66856;SDS011;53766;50.280;19.160;2024-03-02T07:18:27;26.02;;;15.70;;
66856;SDS011;53766;50.280;19.160;2024-03-02T07:20:55;24.80;;;16.05;;
66856;SDS011;53766;50.280;19.160;2024-03-02T07:23:25;24.15;;;15.68;;
66856;SDS011;53766;50.280;19.160;2024-03-02T07:25:54;25.75;;;16.33;;
66856;SDS011;53766;50.280;19.160;2024-03-02T07:28:26;23.67;;;15.68;;
66856;SDS011;53766;50.280;19.160;2024-03-02T07:31:00;33.83;;;16.50;;
66856;SDS011;53766;50.280;19.160;2024-03-02T07:35:56;24.98;;;15.55;;
66856;SDS011;53766;50.280;19.160;2024-03-02T07:38:29;28.90;;;16.85;;
66856;SDS011;53766;50.280;19.160;2024-03-02T07:40:57;25.30;;;16.33;;
66856;SDS011;53766;50.280;19.160;2024-03-02T07:43:25;24.50;;;15.93;;
66856;SDS011;53766;50.280;19.160;2024-03-02T07:45:53;26.38;;;15.77;;
66856;SDS011;53766;50.280;19.160;2024-03-02T07:48:21;26.23;;;16.25;;
66856;SDS011;53766;50.280;19.160;2024-03-02T07:50:48;26.17;;;15.90;;
66856;SDS011;53766;50.280;19.160;2024-03-02T07:53:16;25.08;;;15.85;;
66856;SDS011;53766;50.280;19.160;2024-03-02T07:55:43;28.67;;;16.23;;
66856;SDS011;53766;50.280;19.160;2024-03-02T07:58:11;25.90;;;16.13;;
66856;SDS011;53766;50.280;19.160;2024-03-02T08:00:40;33.45;;;16.35;;
66856;SDS011;53766;50.280;19.160;2024-03-02T08:03:08;26.42;;;16.75;;
66856;SDS011;53766;50.280;19.160;2024-03-02T08:05:38;24.98;;;15.57;;
66856;SDS011;53766;50.280;19.160;2024-03-02T08:08:06;25.77;;;16.77;;
66856;SDS011;53766;50.280;19.160;2024-03-02T08:10:33;26.17;;;15.65;;
66856;SDS011;53766;50.280;19.160;2024-03-02T08:13:01;28.45;;;16.88;;
66856;SDS011;53766;50.280;19.160;2024-03-02T08:15:29;26.90;;;16.65;;
66856;SDS011;53766;50.280;19.160;2024-03-02T08:17:56;23.83;;;16.02;;
66856;SDS011;53766;50.280;19.160;2024-03-02T08:20:24;27.95;;;16.50;;
66856;SDS011;53766;50.280;19.160;2024-03-02T08:22:52;25.30;;;16.33;;
66856;SDS011;53766;50.280;19.160;2024-03-02T08:25:22;23.90;;;16.30;;
66856;SDS011;53766;50.280;19.160;2024-03-02T08:27:50;27.13;;;16.30;;
66856;SDS011;53766;50.280;19.160;2024-03-02T08:30:17;25.65;;;16.13;;
66856;SDS011;53766;50.280;19.160;2024-03-02T08:32:45;29.50;;;16.52;;
66856;SDS011;53766;50.280;19.160;2024-03-02T08:35:14;24.65;;;16.05;;
66856;SDS011;53766;50.280;19.160;2024-03-02T08:37:42;27.30;;;17.15;;
66856;SDS011;53766;50.280;19.160;2024-03-02T08:40:10;26.77;;;17.02;;
66856;SDS011;53766;50.280;19.160;2024-03-02T08:42:43;27.10;;;16.33;;
66856;SDS011;53766;50.280;19.160;2024-03-02T08:45:12;24.67;;;15.68;;
66856;SDS011;53766;50.280;19.160;2024-03-02T08:47:40;28.85;;;16.40;;
66856;SDS011;53766;50.280;19.160;2024-03-02T08:50:08;25.90;;;16.50;;
66856;SDS011;53766;50.280;19.160;2024-03-02T08:52:36;27.30;;;17.20;;
66856;SDS011;53766;50.280;19.160;2024-03-02T08:55:04;24.85;;;16.63;;
66856;SDS011;53766;50.280;19.160;2024-03-02T08:57:32;27.27;;;16.88;;
66856;SDS011;53766;50.280;19.160;2024-03-02T09:00:00;23.30;;;15.30;;
66856;SDS011;53766;50.280;19.160;2024-03-02T09:02:28;27.38;;;16.52;;
66856;SDS011;53766;50.280;19.160;2024-03-02T09:04:55;26.75;;;16.58;;
66856;SDS011;53766;50.280;19.160;2024-03-02T09:07:23;30.63;;;16.50;;
66856;SDS011;53766;50.280;19.160;2024-03-02T09:09:51;26.55;;;16.60;;
66856;SDS011;53766;50.280;19.160;2024-03-02T09:12:19;30.30;;;17.10;;
66856;SDS011;53766;50.280;19.160;2024-03-02T09:14:47;23.90;;;16.25;;
66856;SDS011;53766;50.280;19.160;2024-03-02T09:17:15;30.42;;;16.40;;
66856;SDS011;53766;50.280;19.160;2024-03-02T09:19:43;27.58;;;16.25;;
66856;SDS011;53766;50.280;19.160;2024-03-02T09:22:11;27.38;;;16.30;;
66856;SDS011;53766;50.280;19.160;2024-03-02T09:24:38;29.50;;;16.10;;
66856;SDS011;53766;50.280;19.160;2024-03-02T09:27:07;28.23;;;17.58;;
66856;SDS011;53766;50.280;19.160;2024-03-02T09:29:34;30.58;;;16.50;;
66856;SDS011;53766;50.280;19.160;2024-03-02T09:32:02;28.10;;;16.27;;
66856;SDS011;53766;50.280;19.160;2024-03-02T09:34:29;29.75;;;17.48;;
66856;SDS011;53766;50.280;19.160;2024-03-02T09:36:57;28.85;;;17.00;;
66856;SDS011;53766;50.280;19.160;2024-03-02T09:39:25;28.55;;;16.42;;
66856;SDS011;53766;50.280;19.160;2024-03-02T09:41:53;28.85;;;17.20;;
66856;SDS011;53766;50.280;19.160;2024-03-02T09:44:21;27.25;;;16.08;;
66856;SDS011;53766;50.280;19.160;2024-03-02T09:46:49;30.35;;;16.90;;
66856;SDS011;53766;50.280;19.160;2024-03-02T09:49:18;30.15;;;16.83;;
66856;SDS011;53766;50.280;19.160;2024-03-02T09:51:46;25.88;;;16.30;;
66856;SDS011;53766;50.280;19.160;2024-03-02T09:54:16;30.00;;;16.73;;
66856;SDS011;53766;50.280;19.160;2024-03-02T09:56:49;27.10;;;16.30;;
66856;SDS011;53766;50.280;19.160;2024-03-02T09:59:18;24.88;;;16.27;;
66856;SDS011;53766;50.280;19.160;2024-03-02T10:01:57;28.88;;;16.65;;
66856;SDS011;53766;50.280;19.160;2024-03-02T10:04:29;25.15;;;16.75;;
66856;SDS011;53766;50.280;19.160;2024-03-02T10:07:09;26.83;;;16.92;;
66856;SDS011;53766;50.280;19.160;2024-03-02T10:09:39;30.40;;;17.13;;
66856;SDS011;53766;50.280;19.160;2024-03-02T10:12:08;27.83;;;16.63;;
66856;SDS011;53766;50.280;19.160;2024-03-02T10:15:04;26.88;;;15.50;;
66856;SDS011;53766;50.280;19.160;2024-03-02T10:17:33;25.00;;;16.42;;
66856;SDS011;53766;50.280;19.160;2024-03-02T10:20:20;27.73;;;16.77;;
66856;SDS011;53766;50.280;19.160;2024-03-02T10:22:51;26.52;;;16.55;;
66856;SDS011;53766;50.280;19.160;2024-03-02T10:25:32;28.48;;;16.65;;
66856;SDS011;53766;50.280;19.160;2024-03-02T10:28:17;27.02;;;16.20;;
66856;SDS011;53766;50.280;19.160;2024-03-02T10:30:47;25.10;;;16.95;;
66856;SDS011;53766;50.280;19.160;2024-03-02T10:33:17;25.38;;;16.65;;
66856;SDS011;53766;50.280;19.160;2024-03-02T10:35:44;25.30;;;16.90;;
66856;SDS011;53766;50.280;19.160;2024-03-02T10:38:12;28.67;;;17.13;;
66856;SDS011;53766;50.280;19.160;2024-03-02T10:40:40;29.90;;;17.30;;
66856;SDS011;53766;50.280;19.160;2024-03-02T10:43:07;31.83;;;17.90;;
66856;SDS011;53766;50.280;19.160;2024-03-02T10:45:36;25.00;;;16.15;;
66856;SDS011;53766;50.280;19.160;2024-03-02T10:48:04;25.67;;;16.45;;
66856;SDS011;53766;50.280;19.160;2024-03-02T10:50:33;26.35;;;16.85;;
66856;SDS011;53766;50.280;19.160;2024-03-02T10:53:00;30.00;;;16.52;;
66856;SDS011;53766;50.280;19.160;2024-03-02T10:55:28;25.75;;;16.98;;
66856;SDS011;53766;50.280;19.160;2024-03-02T10:57:57;25.23;;;16.63;;
66856;SDS011;53766;50.280;19.160;2024-03-02T11:00:31;28.40;;;17.30;;
66856;SDS011;53766;50.280;19.160;2024-03-02T11:03:05;25.35;;;17.42;;
66856;SDS011;53766;50.280;19.160;2024-03-02T11:05:36;27.90;;;17.30;;
66856;SDS011;53766;50.280;19.160;2024-03-02T11:08:07;27.52;;;16.98;;
66856;SDS011;53766;50.280;19.160;2024-03-02T11:10:41;27.10;;;16.27;;
66856;SDS011;53766;50.280;19.160;2024-03-02T11:13:26;24.20;;;16.77;;
66856;SDS011;53766;50.280;19.160;2024-03-02T11:15:59;25.20;;;16.30;;
66856;SDS011;53766;50.280;19.160;2024-03-02T11:18:33;27.80;;;17.33;;
66856;SDS011;53766;50.280;19.160;2024-03-02T11:21:02;27.95;;;17.55;;
66856;SDS011;53766;50.280;19.160;2024-03-02T11:23:34;31.02;;;17.75;;
66856;SDS011;53766;50.280;19.160;2024-03-02T11:26:20;28.92;;;16.90;;
66856;SDS011;53766;50.280;19.160;2024-03-02T11:28:49;31.25;;;17.58;;
66856;SDS011;53766;50.280;19.160;2024-03-02T11:31:17;31.63;;;16.65;;
66856;SDS011;53766;50.280;19.160;2024-03-02T11:33:45;26.67;;;17.17;;
66856;SDS011;53766;50.280;19.160;2024-03-02T11:36:12;29.42;;;17.15;;
66856;SDS011;53766;50.280;19.160;2024-03-02T11:38:40;29.58;;;17.58;;
66856;SDS011;53766;50.280;19.160;2024-03-02T11:41:11;28.73;;;17.05;;
66856;SDS011;53766;50.280;19.160;2024-03-02T11:43:40;26.27;;;16.38;;
66856;SDS011;53766;50.280;19.160;2024-03-02T11:46:10;28.67;;;17.75;;
66856;SDS011;53766;50.280;19.160;2024-03-02T11:48:39;27.17;;;16.67;;
66856;SDS011;53766;50.280;19.160;2024-03-02T11:51:07;27.75;;;16.92;;
66856;SDS011;53766;50.280;19.160;2024-03-02T11:53:35;26.60;;;16.77;;
66856;SDS011;53766;50.280;19.160;2024-03-02T11:56:06;29.35;;;17.23;;
66856;SDS011;53766;50.280;19.160;2024-03-02T11:58:36;29.95;;;17.52;;
66856;SDS011;53766;50.280;19.160;2024-03-02T12:01:08;27.20;;;16.85;;
66856;SDS011;53766;50.280;19.160;2024-03-02T12:03:38;23.35;;;16.33;;
66856;SDS011;53766;50.280;19.160;2024-03-02T12:06:06;26.55;;;16.38;;
66856;SDS011;53766;50.280;19.160;2024-03-02T12:08:34;28.90;;;16.15;;
66856;SDS011;53766;50.280;19.160;2024-03-02T12:11:02;28.20;;;16.70;;
66856;SDS011;53766;50.280;19.160;2024-03-02T12:13:31;28.13;;;16.40;;
66856;SDS011;53766;50.280;19.160;2024-03-02T12:15:59;25.73;;;16.20;;
66856;SDS011;53766;50.280;19.160;2024-03-02T12:18:27;35.08;;;17.48;;
66856;SDS011;53766;50.280;19.160;2024-03-02T12:20:55;28.23;;;16.88;;
66856;SDS011;53766;50.280;19.160;2024-03-02T12:23:26;25.60;;;15.75;;
66856;SDS011;53766;50.280;19.160;2024-03-02T12:25:54;31.38;;;17.50;;
66856;SDS011;53766;50.280;19.160;2024-03-02T12:28:22;26.38;;;16.33;;
66856;SDS011;53766;50.280;19.160;2024-03-02T12:30:50;28.95;;;17.00;;
66856;SDS011;53766;50.280;19.160;2024-03-02T12:33:19;25.50;;;17.08;;
66856;SDS011;53766;50.280;19.160;2024-03-02T12:35:48;27.42;;;16.20;;
66856;SDS011;53766;50.280;19.160;2024-03-02T12:38:16;26.08;;;15.77;;
66856;SDS011;53766;50.280;19.160;2024-03-02T12:40:44;26.35;;;16.88;;
66856;SDS011;53766;50.280;19.160;2024-03-02T12:43:11;26.90;;;16.85;;
66856;SDS011;53766;50.280;19.160;2024-03-02T12:45:39;28.95;;;17.23;;
66856;SDS011;53766;50.280;19.160;2024-03-02T12:48:07;27.80;;;16.33;;
66856;SDS011;53766;50.280;19.160;2024-03-02T12:50:34;29.83;;;17.52;;
66856;SDS011;53766;50.280;19.160;2024-03-02T12:53:02;27.20;;;17.30;;
66856;SDS011;53766;50.280;19.160;2024-03-02T12:55:30;29.45;;;16.83;;
66856;SDS011;53766;50.280;19.160;2024-03-02T12:57:58;27.10;;;16.95;;
66856;SDS011;53766;50.280;19.160;2024-03-02T13:00:26;27.17;;;15.90;;
66856;SDS011;53766;50.280;19.160;2024-03-02T13:02:56;26.20;;;16.25;;
66856;SDS011;53766;50.280;19.160;2024-03-02T13:05:32;29.50;;;16.63;;
66856;SDS011;53766;50.280;19.160;2024-03-02T13:07:59;26.27;;;16.67;;
66856;SDS011;53766;50.280;19.160;2024-03-02T13:10:27;29.83;;;17.95;;
66856;SDS011;53766;50.280;19.160;2024-03-02T13:12:56;27.33;;;16.88;;
66856;SDS011;53766;50.280;19.160;2024-03-02T13:15:23;25.73;;;16.27;;
66856;SDS011;53766;50.280;19.160;2024-03-02T13:17:53;27.73;;;15.73;;
66856;SDS011;53766;50.280;19.160;2024-03-02T13:20:20;27.33;;;16.90;;
66856;SDS011;53766;50.280;19.160;2024-03-02T13:22:50;25.92;;;16.52;;
66856;SDS011;53766;50.280;19.160;2024-03-02T13:25:17;28.45;;;16.55;;
66856;SDS011;53766;50.280;19.160;2024-03-02T13:27:45;27.58;;;16.58;;
66856;SDS011;53766;50.280;19.160;2024-03-02T13:30:13;24.45;;;16.27;;
66856;SDS011;53766;50.280;19.160;2024-03-02T13:32:41;24.10;;;15.50;;
66856;SDS011;53766;50.280;19.160;2024-03-02T13:35:09;25.48;;;15.82;;
66856;SDS011;53766;50.280;19.160;2024-03-02T13:37:38;26.58;;;16.60;;
66856;SDS011;53766;50.280;19.160;2024-03-02T13:40:07;25.83;;;16.00;;
66856;SDS011;53766;50.280;19.160;2024-03-02T13:42:40;28.58;;;16.33;;
66856;SDS011;53766;50.280;19.160;2024-03-02T13:45:08;26.40;;;15.63;;
66856;SDS011;53766;50.280;19.160;2024-03-02T13:47:36;25.15;;;16.40;;
66856;SDS011;53766;50.280;19.160;2024-03-02T13:50:04;23.27;;;15.55;;
66856;SDS011;53766;50.280;19.160;2024-03-02T13:52:32;27.48;;;15.77;;
66856;SDS011;53766;50.280;19.160;2024-03-02T13:55:00;26.88;;;15.60;;
66856;SDS011;53766;50.280;19.160;2024-03-02T13:57:27;27.58;;;15.93;;
66856;SDS011;53766;50.280;19.160;2024-03-02T13:59:55;23.05;;;15.52;;
66856;SDS011;53766;50.280;19.160;2024-03-02T14:02:23;26.50;;;15.85;;
66856;SDS011;53766;50.280;19.160;2024-03-02T14:04:50;26.27;;;16.00;;
66856;SDS011;53766;50.280;19.160;2024-03-02T14:07:18;27.88;;;16.40;;
66856;SDS011;53766;50.280;19.160;2024-03-02T14:09:46;27.10;;;15.18;;
66856;SDS011;53766;50.280;19.160;2024-03-02T14:12:14;26.55;;;16.30;;
66856;SDS011;53766;50.280;19.160;2024-03-02T14:14:41;26.77;;;15.93;;
66856;SDS011;53766;50.280;19.160;2024-03-02T14:17:10;26.45;;;16.45;;
66856;SDS011;53766;50.280;19.160;2024-03-02T14:19:42;23.38;;;14.93;;
66856;SDS011;53766;50.280;19.160;2024-03-02T14:22:09;22.85;;;15.27;;
66856;SDS011;53766;50.280;19.160;2024-03-02T14:24:37;24.88;;;15.70;;
66856;SDS011;53766;50.280;19.160;2024-03-02T14:27:05;23.38;;;15.85;;